Portada
METAR-TAF:

METAR-TAF

Aeroports :

Aeroport Internacional Hartsfield-Jackson

Atlanta, Geòrgia, Estats Units d'Amèrica

latitud: 33-38-25N, longitud: 084-25-37W, altitud: 313 m

Observació

L'informe es va fer fa 49 minuts, a les 13:52 UTC
Vent 5 kt del Oest/Nord-Oest
Temperatura 17°C
Humitat 52%
Pressió 1023 hPa
Visibilitat: 16.1 km
Cel clar

METAR: KATL 221352Z 30005KT 10SM CLR 17/07 A3022 RMK AO2 SLP232 T01720067

Hora: 10:41 (14:41 UTC)

Pronòstic

L'informe es va fer fa 46 minuts, a les 13:55 UTC
Pronòstic vàlid del 22 a les 14 UTC al 23 a les 18 UTC
Vent 5 kt del Oest/Nord-Oest
Visibilitat: 10 km
Cel clar
A partir de les 23 a les 0000 UTC
Vent 3 kt del Oest/Sud-Oest
Visibilitat: 10 km
Cel clar
A partir de les 23 a les 1500 UTC
Vent 6 kt del Oest
Visibilitat: 10 km
Cel clar

TAF: KATL 221355Z 2214/2318 30005KT P6SM SKC FM230000 24003KT P6SM SKC FM231500 28006KT P6SM SKC

Observacions i pronòstics meteorològics de més de 4000 aeroports (METAR i TAF).

Les estacions disponibles són els punts grocs i vermells al mapa.

Posi el ratolí al punt desitjat per veure el nom de l'estació.

Feu clic per veure les observacions i els pronòstics meteorològics.

Per canviar el mapa: feu clic els botons verds amb una creu de color negre per apropar; al botó verd amb un guió per allunyar la imatge; o en les fletxes verdes per a mapes adjacents.


METAR-TAF: